createdAt,value
2023-05-07T00:00:22.758Z,6.68
2023-05-07T00:01:57.953Z,6.67
2023-05-07T00:03:29.642Z,6.67
2023-05-07T00:04:51.578Z,6.67
2023-05-07T00:06:13.657Z,6.70
2023-05-07T00:07:54.788Z,6.70
2023-05-07T00:09:26.362Z,6.68
2023-05-07T00:11:11.535Z,6.63
2023-05-07T00:12:34.750Z,6.64
2023-05-07T00:14:08.226Z,6.56
2023-05-07T00:15:32.184Z,6.68
2023-05-07T00:17:05.700Z,6.70
2023-05-07T00:18:39.088Z,6.70
2023-05-07T00:20:10.310Z,6.68
2023-05-07T00:21:47.364Z,6.65
2023-05-07T00:23:24.128Z,6.62
2023-05-07T00:24:59.672Z,6.62
2023-05-07T00:26:33.186Z,6.66
2023-05-07T00:28:08.234Z,6.64
2023-05-07T00:29:30.318Z,6.56
2023-05-07T00:31:04.113Z,6.61
2023-05-07T00:32:37.843Z,6.59
2023-05-07T00:34:18.967Z,6.55
2023-05-07T00:35:52.651Z,6.49
2023-05-07T00:37:37.834Z,6.40
2023-05-07T00:39:23.346Z,6.50
2023-05-07T00:40:47.059Z,6.51
2023-05-07T00:42:09.274Z,6.50
2023-05-07T00:43:33.480Z,6.47
2023-05-07T00:44:56.209Z,6.45
2023-05-07T00:46:18.234Z,6.47
2023-05-07T00:48:07.704Z,6.43
2023-05-07T00:49:43.566Z,6.37
2023-05-07T00:51:12.679Z,6.40
2023-05-07T00:52:46.029Z,6.41
2023-05-07T00:54:12.557Z,6.39
2023-05-07T00:55:46.113Z,6.39
2023-05-07T00:57:17.332Z,6.39
2023-05-07T00:58:38.798Z,6.39
2023-05-07T01:00:10.439Z,6.37
2023-05-07T01:01:56.009Z,6.37
2023-05-07T01:03:29.402Z,6.34
2023-05-07T01:04:54.155Z,6.31
2023-05-07T01:06:35.160Z,6.30
2023-05-07T01:08:08.841Z,6.29
2023-05-07T01:09:58.742Z,6.29
2023-05-07T01:11:32.112Z,6.29
2023-05-07T01:13:05.583Z,6.28
2023-05-07T01:14:38.656Z,6.30
2023-05-07T01:16:12.403Z,6.30
2023-05-07T01:17:43.761Z,6.25
2023-05-07T01:19:30.028Z,6.34
2023-05-07T01:21:10.600Z,6.34
2023-05-07T01:22:47.326Z,6.33
2023-05-07T01:24:32.280Z,6.30
2023-05-07T01:26:17.364Z,6.21
2023-05-07T01:27:51.796Z,6.29
2023-05-07T01:29:26.722Z,6.31
2023-05-07T01:31:11.656Z,6.28
2023-05-07T01:32:47.536Z,6.31
2023-05-07T01:34:21.018Z,6.31
2023-05-07T01:36:02.010Z,6.30
2023-05-07T01:37:37.721Z,6.39
2023-05-07T01:39:06.585Z,6.39
2023-05-07T01:40:36.430Z,6.40
2023-05-07T01:42:17.626Z,6.37
2023-05-07T01:44:02.967Z,6.32
2023-05-07T01:45:38.890Z,6.31
2023-05-07T01:47:19.543Z,6.32
2023-05-07T01:48:46.885Z,6.36
2023-05-07T01:50:31.702Z,6.38
2023-05-07T01:52:12.263Z,6.38
2023-05-07T01:53:46.735Z,6.38
2023-05-07T01:55:16.265Z,6.38
2023-05-07T01:56:49.859Z,6.33
2023-05-07T01:58:23.003Z,6.29
2023-05-07T01:59:56.484Z,6.29
2023-05-07T02:01:28.034Z,6.29
2023-05-07T02:03:02.049Z,6.32
2023-05-07T02:04:44.898Z,6.30
2023-05-07T02:06:21.566Z,6.30
2023-05-07T02:07:57.616Z,6.29
2023-05-07T02:09:33.841Z,6.25
2023-05-07T02:11:15.639Z,6.24
2023-05-07T02:12:51.283Z,6.19
2023-05-07T02:14:16.442Z,6.19
2023-05-07T02:15:50.379Z,6.19
2023-05-07T02:17:12.416Z,6.17
2023-05-07T02:18:41.163Z,6.16
2023-05-07T02:20:14.570Z,6.17
2023-05-07T02:21:56.432Z,6.20
2023-05-07T02:23:41.860Z,6.14
2023-05-07T02:25:11.004Z,6.10
2023-05-07T02:26:58.143Z,6.07
2023-05-07T02:28:34.123Z,5.95
2023-05-07T02:30:09.576Z,6.07
2023-05-07T02:31:43.456Z,6.10
2023-05-07T02:33:19.059Z,6.12
2023-05-07T02:34:48.840Z,6.10
2023-05-07T02:36:29.665Z,6.06
2023-05-07T02:38:13.999Z,6.05
2023-05-07T02:39:47.671Z,6.06
2023-05-07T02:41:12.119Z,6.07
2023-05-07T02:42:38.350Z,6.07
2023-05-07T02:44:11.988Z,6.07
2023-05-07T02:45:44.717Z,6.04
2023-05-07T02:47:32.997Z,6.04
2023-05-07T02:48:56.675Z,6.02
2023-05-07T02:50:45.721Z,6.01
2023-05-07T02:52:31.228Z,6.04
2023-05-07T02:53:58.150Z,5.99
2023-05-07T02:55:31.330Z,5.98
2023-05-07T02:57:04.767Z,5.99
2023-05-07T02:58:49.689Z,6.03
2023-05-07T03:00:32.042Z,6.04
2023-05-07T03:02:08.361Z,6.02
2023-05-07T03:03:49.227Z,6.02
2023-05-07T03:05:21.435Z,6.05
2023-05-07T03:07:06.211Z,6.02
2023-05-07T03:08:50.911Z,6.01
2023-05-07T03:10:22.317Z,6.04
2023-05-07T03:11:51.346Z,6.04
2023-05-07T03:13:15.447Z,6.00
2023-05-07T03:14:48.694Z,5.99
2023-05-07T03:16:24.358Z,6.02
2023-05-07T03:18:09.522Z,6.00
2023-05-07T03:19:41.308Z,6.01
2023-05-07T03:21:05.740Z,5.91
2023-05-07T03:22:34.574Z,6.03
2023-05-07T03:23:57.164Z,6.04
2023-05-07T03:25:36.012Z,6.09
2023-05-07T03:27:11.661Z,6.12
2023-05-07T03:28:42.988Z,6.14
2023-05-07T03:30:19.900Z,6.13
2023-05-07T03:31:55.988Z,6.12
2023-05-07T03:33:20.561Z,6.11
2023-05-07T03:35:01.350Z,6.12
2023-05-07T03:36:39.216Z,6.08
2023-05-07T03:38:13.552Z,6.04
2023-05-07T03:39:51.241Z,5.99
2023-05-07T03:41:37.113Z,5.93
2023-05-07T03:43:10.732Z,5.90
2023-05-07T03:44:53.561Z,5.89
2023-05-07T03:46:23.417Z,5.89
2023-05-07T03:47:46.157Z,5.86
2023-05-07T03:49:10.755Z,5.87
2023-05-07T03:50:51.681Z,5.88
2023-05-07T03:52:26.656Z,5.84
2023-05-07T03:54:00.480Z,5.84
2023-05-07T03:55:36.801Z,5.81
2023-05-07T03:57:01.181Z,5.81
2023-05-07T03:58:35.548Z,5.77
2023-05-07T04:00:08.459Z,5.77
2023-05-07T04:01:42.982Z,5.79
2023-05-07T04:03:20.038Z,5.81
2023-05-07T04:04:53.196Z,5.84
2023-05-07T04:06:26.465Z,5.85
2023-05-07T04:07:52.810Z,5.85
2023-05-07T04:09:29.443Z,5.92
2023-05-07T04:11:05.034Z,5.91
2023-05-07T04:12:46.577Z,5.90
2023-05-07T04:14:23.251Z,5.88
2023-05-07T04:15:59.504Z,5.93
2023-05-07T04:17:26.277Z,5.94
2023-05-07T04:18:58.373Z,5.95
2023-05-07T04:20:43.618Z,5.95
2023-05-07T04:22:24.744Z,5.91
2023-05-07T04:24:00.845Z,5.91
2023-05-07T04:25:34.758Z,5.93
2023-05-07T04:27:14.300Z,5.94
2023-05-07T04:28:47.586Z,5.97
2023-05-07T04:30:12.643Z,5.98
2023-05-07T04:31:46.602Z,5.96
2023-05-07T04:33:18.511Z,5.97
2023-05-07T04:34:54.761Z,5.94
2023-05-07T04:36:16.716Z,5.98
2023-05-07T04:37:53.410Z,5.98
2023-05-07T04:39:38.682Z,5.92
2023-05-07T04:41:14.779Z,5.91
2023-05-07T04:42:56.386Z,5.96
2023-05-07T04:44:18.558Z,5.99
2023-05-07T04:45:54.021Z,6.05
2023-05-07T04:47:29.163Z,6.07
2023-05-07T04:49:03.002Z,6.10
2023-05-07T04:50:40.484Z,6.11
2023-05-07T04:52:14.073Z,6.11
2023-05-07T04:53:49.689Z,6.10
2023-05-07T04:55:13.743Z,6.13
2023-05-07T04:56:38.341Z,6.19
2023-05-07T04:58:02.310Z,6.22
2023-05-07T04:59:32.264Z,6.25
2023-05-07T05:00:57.471Z,6.29
2023-05-07T05:02:22.084Z,6.28
2023-05-07T05:04:03.191Z,6.28
2023-05-07T05:05:36.767Z,6.28
2023-05-07T05:07:09.927Z,6.23
2023-05-07T05:08:45.603Z,6.22
2023-05-07T05:10:15.454Z,6.21
2023-05-07T05:11:39.880Z,6.18
2023-05-07T05:13:15.593Z,6.19
2023-05-07T05:14:37.781Z,6.18
2023-05-07T05:15:59.763Z,6.19
2023-05-07T05:17:35.880Z,6.16
2023-05-07T05:19:01.036Z,6.15
2023-05-07T05:20:22.732Z,6.13
2023-05-07T05:22:07.965Z,6.13
2023-05-07T05:23:43.561Z,6.15
2023-05-07T05:25:05.148Z,6.22
2023-05-07T05:26:35.231Z,6.26
2023-05-07T05:27:57.503Z,6.33
2023-05-07T05:29:21.062Z,6.37
2023-05-07T05:30:58.028Z,6.38
2023-05-07T05:32:21.910Z,6.39
2023-05-07T05:34:05.137Z,6.39
2023-05-07T05:35:27.366Z,6.38
2023-05-07T05:36:48.865Z,6.40
2023-05-07T05:38:22.463Z,6.40
2023-05-07T05:39:56.554Z,6.34
2023-05-07T05:41:40.338Z,6.34
2023-05-07T05:43:10.151Z,6.38
2023-05-07T05:44:34.158Z,6.40
2023-05-07T05:46:09.859Z,6.37
2023-05-07T05:47:31.521Z,6.31
2023-05-07T05:49:16.804Z,6.26
2023-05-07T05:50:52.334Z,6.28
2023-05-07T05:52:18.485Z,6.32
2023-05-07T05:53:43.588Z,6.37
2023-05-07T05:55:07.625Z,6.44
2023-05-07T05:56:53.852Z,6.50
2023-05-07T05:58:16.292Z,6.50
2023-05-07T05:59:48.318Z,6.47
2023-05-07T06:01:12.940Z,6.46
2023-05-07T06:02:34.616Z,6.48
2023-05-07T06:04:09.408Z,6.52
2023-05-07T06:05:33.428Z,6.58
2023-05-07T06:06:55.284Z,6.61
2023-05-07T06:08:19.674Z,6.63
2023-05-07T06:09:41.909Z,6.62
2023-05-07T06:11:04.095Z,6.62
2023-05-07T06:12:29.115Z,6.62
2023-05-07T06:13:53.066Z,6.65
2023-05-07T06:15:15.258Z,6.64
2023-05-07T06:16:39.938Z,6.62
2023-05-07T06:18:09.619Z,6.64
2023-05-07T06:19:39.099Z,6.68
2023-05-07T06:21:03.843Z,6.71
2023-05-07T06:22:35.968Z,6.74
2023-05-07T06:24:11.942Z,6.78
2023-05-07T06:25:34.027Z,6.80
2023-05-07T06:26:59.433Z,6.81
2023-05-07T06:28:22.428Z,6.80
2023-05-07T06:29:45.013Z,6.80
2023-05-07T06:31:09.404Z,6.79
2023-05-07T06:32:31.077Z,6.80
2023-05-07T06:34:00.484Z,6.84
2023-05-07T06:35:27.091Z,6.85
2023-05-07T06:37:09.004Z,6.87
2023-05-07T06:38:47.304Z,6.93
2023-05-07T06:40:11.218Z,6.92
2023-05-07T06:41:56.930Z,6.95
2023-05-07T06:43:33.794Z,6.92
2023-05-07T06:45:23.366Z,6.90
2023-05-07T06:46:46.100Z,6.90
2023-05-07T06:48:12.706Z,6.92
2023-05-07T06:50:09.416Z,6.95
2023-05-07T06:51:43.587Z,7.01
2023-05-07T06:53:17.013Z,7.01
2023-05-07T06:54:41.289Z,7.04
2023-05-07T06:56:22.493Z,7.03
2023-05-07T06:58:09.807Z,7.02
2023-05-07T06:59:31.559Z,7.04
2023-05-07T07:01:12.207Z,7.08
2023-05-07T07:02:44.437Z,7.13
2023-05-07T07:04:13.496Z,7.19
2023-05-07T07:05:39.368Z,7.25
2023-05-07T07:07:05.462Z,7.28
2023-05-07T07:08:30.848Z,7.30
2023-05-07T07:10:06.243Z,7.30
2023-05-07T07:11:40.046Z,7.31
2023-05-07T07:13:01.885Z,7.33
2023-05-07T07:14:24.239Z,7.37
2023-05-07T07:15:48.195Z,7.39
2023-05-07T07:17:10.077Z,7.41
2023-05-07T07:18:43.478Z,7.46
2023-05-07T07:20:19.805Z,7.48
2023-05-07T07:21:55.557Z,7.52
2023-05-07T07:23:29.542Z,7.54
2023-05-07T07:25:03.275Z,7.49
2023-05-07T07:26:25.136Z,7.46
2023-05-07T07:27:51.889Z,7.42
2023-05-07T07:29:16.360Z,7.41
2023-05-07T07:30:40.578Z,7.43
2023-05-07T07:32:02.428Z,7.45
2023-05-07T07:33:35.846Z,7.48
2023-05-07T07:35:12.148Z,7.48
2023-05-07T07:36:46.218Z,7.48
2023-05-07T07:38:11.173Z,7.35
2023-05-07T07:39:35.080Z,7.37
2023-05-07T07:41:11.165Z,7.38
2023-05-07T07:42:40.117Z,7.38
2023-05-07T07:44:15.675Z,7.38
2023-05-07T07:45:50.660Z,7.39
2023-05-07T07:47:12.318Z,7.40
2023-05-07T07:48:34.197Z,7.43
2023-05-07T07:49:56.707Z,7.47
2023-05-07T07:51:18.828Z,7.50
2023-05-07T07:52:47.908Z,7.50
2023-05-07T07:54:11.994Z,7.48
2023-05-07T07:55:36.636Z,7.44
2023-05-07T07:56:58.869Z,7.41
2023-05-07T07:58:20.678Z,7.36
2023-05-07T07:59:49.367Z,7.31
2023-05-07T08:01:13.160Z,7.33
2023-05-07T08:02:58.456Z,7.33
2023-05-07T08:04:23.495Z,7.33
2023-05-07T08:05:57.094Z,7.36
2023-05-07T08:07:21.536Z,7.39
2023-05-07T08:08:50.728Z,7.41
2023-05-07T08:10:13.618Z,7.42
2023-05-07T08:11:37.621Z,7.41
2023-05-07T08:13:10.845Z,7.40
2023-05-07T08:14:35.245Z,7.42
2023-05-07T08:15:59.508Z,7.43
2023-05-07T08:17:23.313Z,7.43
2023-05-07T08:18:45.572Z,7.50
2023-05-07T08:20:14.846Z,7.59
2023-05-07T08:21:49.000Z,7.66
2023-05-07T08:23:13.196Z,7.70
2023-05-07T08:24:37.897Z,7.72
2023-05-07T08:26:01.981Z,7.73
2023-05-07T08:27:25.813Z,7.66
2023-05-07T08:28:55.768Z,7.71
2023-05-07T08:30:18.313Z,7.71
2023-05-07T08:31:40.587Z,7.74
2023-05-07T08:35:01.655Z,7.84
2023-05-07T08:36:23.143Z,7.87
2023-05-07T08:37:49.629Z,7.92
2023-05-07T08:39:12.826Z,7.99
2023-05-07T08:40:36.840Z,8.04
2023-05-07T08:42:06.186Z,8.09
2023-05-07T08:43:35.979Z,8.08
2023-05-07T08:45:00.249Z,8.06
2023-05-07T08:46:24.020Z,7.97
2023-05-07T08:47:51.544Z,7.95
2023-05-07T08:49:16.906Z,7.93
2023-05-07T08:50:50.616Z,7.98
2023-05-07T08:52:12.331Z,8.15
2023-05-07T08:53:41.868Z,8.33
2023-05-07T08:55:07.018Z,8.48
2023-05-07T08:56:28.937Z,8.61
2023-05-07T08:57:51.021Z,8.71
2023-05-07T08:59:17.426Z,8.77
2023-05-07T09:00:41.762Z,8.81
2023-05-07T09:02:11.240Z,8.84
2023-05-07T09:03:33.566Z,8.86
2023-05-07T09:04:55.118Z,8.89
2023-05-07T09:06:29.432Z,8.82
2023-05-07T09:07:53.937Z,8.72
2023-05-07T09:09:16.983Z,8.65
2023-05-07T09:10:40.786Z,8.61
2023-05-07T09:12:04.702Z,8.58
2023-05-07T09:13:27.691Z,8.51
2023-05-07T09:14:52.434Z,8.48
2023-05-07T09:16:14.613Z,8.43
2023-05-07T09:17:39.645Z,8.39
2023-05-07T09:19:02.150Z,8.33
2023-05-07T09:20:23.838Z,8.36
2023-05-07T09:21:45.659Z,8.38
2023-05-07T09:23:10.617Z,8.42
2023-05-07T09:24:36.237Z,8.50
2023-05-07T09:26:00.881Z,8.57
2023-05-07T09:27:23.381Z,8.68
2023-05-07T09:29:04.354Z,8.80
2023-05-07T09:30:38.267Z,8.88
2023-05-07T09:32:01.981Z,8.90
2023-05-07T09:33:24.165Z,8.92
2023-05-07T09:34:48.220Z,9.00
2023-05-07T09:36:19.961Z,9.04
2023-05-07T09:37:42.054Z,9.05
2023-05-07T09:39:05.968Z,9.08
2023-05-07T09:40:28.288Z,9.13
2023-05-07T09:41:53.640Z,9.18
2023-05-07T09:43:20.191Z,9.20
2023-05-07T09:44:50.735Z,9.20
2023-05-07T09:46:14.939Z,9.17
2023-05-07T09:47:48.287Z,9.16
2023-05-07T09:49:22.050Z,9.13
2023-05-07T09:50:44.973Z,9.10
2023-05-07T09:52:11.455Z,9.08
2023-05-07T09:53:36.764Z,8.97
2023-05-07T09:55:10.133Z,8.99
2023-05-07T09:56:34.924Z,8.97
2023-05-07T09:58:10.521Z,8.86
2023-05-07T09:59:34.773Z,8.95
2023-05-07T10:00:58.637Z,8.93
2023-05-07T10:02:21.416Z,8.92
2023-05-07T10:03:49.438Z,8.92
2023-05-07T10:05:13.642Z,8.91
2023-05-07T10:06:37.899Z,8.91
2023-05-07T10:07:59.834Z,8.92
2023-05-07T10:09:31.273Z,8.95
2023-05-07T10:10:57.669Z,8.96
2023-05-07T10:12:22.104Z,9.01
2023-05-07T10:13:49.697Z,9.06
2023-05-07T10:15:11.802Z,9.05
2023-05-07T10:16:41.456Z,9.00
2023-05-07T10:18:06.268Z,8.97
2023-05-07T10:19:28.700Z,8.98
2023-05-07T10:21:04.461Z,9.00
2023-05-07T10:22:28.441Z,8.99
2023-05-07T10:23:50.217Z,9.02
2023-05-07T10:25:12.444Z,9.11
2023-05-07T10:26:36.642Z,9.14
2023-05-07T10:28:09.940Z,9.23
2023-05-07T10:29:32.620Z,9.37
2023-05-07T10:31:07.101Z,9.49
2023-05-07T10:32:33.289Z,9.62
2023-05-07T10:33:54.989Z,9.69
2023-05-07T10:35:19.400Z,9.70
2023-05-07T10:36:46.179Z,9.75
2023-05-07T10:38:17.957Z,9.75
2023-05-07T10:39:40.121Z,9.73
2023-05-07T10:41:02.150Z,9.79
2023-05-07T10:42:24.789Z,10.09
2023-05-07T10:43:47.767Z,10.31
2023-05-07T10:45:15.154Z,10.58
2023-05-07T10:46:44.966Z,10.72
2023-05-07T10:50:00.645Z,10.67
2023-05-07T10:51:24.799Z,10.61
2023-05-07T10:52:52.116Z,10.52
2023-05-07T10:54:23.781Z,10.52
2023-05-07T10:55:50.978Z,10.59
2023-05-07T10:57:16.072Z,10.67
2023-05-07T10:58:40.217Z,10.66
2023-05-07T11:00:09.975Z,10.56
2023-05-07T11:01:34.110Z,10.49
2023-05-07T11:02:56.105Z,10.44
2023-05-07T11:04:19.274Z,10.38
2023-05-07T11:06:26.537Z,10.22
2023-05-07T11:07:55.484Z,10.08
2023-05-07T11:09:17.976Z,9.90
2023-05-07T11:10:50.518Z,9.75
2023-05-07T11:12:20.323Z,9.65
2023-05-07T11:13:52.649Z,9.55
2023-05-07T11:15:38.931Z,9.64
2023-05-07T11:17:05.933Z,9.74
2023-05-07T11:18:29.802Z,9.85
2023-05-07T11:20:03.189Z,9.96
2023-05-07T11:21:33.053Z,10.08
2023-05-07T11:23:13.854Z,10.24
2023-05-07T11:24:41.920Z,10.31
2023-05-07T11:26:05.991Z,10.35
2023-05-07T11:27:32.067Z,10.36
2023-05-07T11:29:06.076Z,10.36
2023-05-07T11:30:43.800Z,10.35
2023-05-07T11:32:13.713Z,10.45
2023-05-07T11:33:40.953Z,10.52
2023-05-07T11:35:05.812Z,10.61
2023-05-07T11:36:42.256Z,10.69
2023-05-07T11:38:04.139Z,10.75
2023-05-07T11:39:34.311Z,10.83
2023-05-07T11:41:03.602Z,10.94
2023-05-07T11:42:29.441Z,11.06
2023-05-07T11:43:53.739Z,11.20
2023-05-07T11:45:27.231Z,11.40
2023-05-07T11:47:07.517Z,11.61
2023-05-07T11:48:43.306Z,11.71
2023-05-07T11:50:12.883Z,11.81
2023-05-07T11:51:47.589Z,11.81
2023-05-07T11:53:22.133Z,11.79
2023-05-07T11:57:04.058Z,11.67
2023-05-07T11:58:28.209Z,11.59
2023-05-07T11:59:52.425Z,11.49
2023-05-07T12:01:24.037Z,11.42
2023-05-07T12:02:57.633Z,11.35
2023-05-07T12:04:22.374Z,11.27
2023-05-07T12:05:44.149Z,11.21
2023-05-07T12:07:08.360Z,11.15
2023-05-07T12:08:32.276Z,11.13
2023-05-07T12:10:05.594Z,11.09
2023-05-07T12:11:41.911Z,11.18
2023-05-07T12:13:10.970Z,11.20
2023-05-07T12:14:33.676Z,11.21
2023-05-07T12:16:09.542Z,11.26
2023-05-07T12:17:43.155Z,11.31
2023-05-07T12:19:09.891Z,11.37
2023-05-07T12:20:31.719Z,11.39
2023-05-07T12:21:53.517Z,11.45
2023-05-07T12:23:15.800Z,11.56
2023-05-07T12:24:42.109Z,11.59
2023-05-07T12:26:11.360Z,11.59
2023-05-07T12:27:47.845Z,11.54
2023-05-07T12:29:16.966Z,11.51
2023-05-07T12:30:43.388Z,11.48
2023-05-07T12:32:07.132Z,11.31
2023-05-07T12:33:29.782Z,11.34
2023-05-07T12:34:56.170Z,11.29
2023-05-07T12:36:31.848Z,11.27
2023-05-07T12:38:10.169Z,11.29
2023-05-07T12:39:50.696Z,11.26
2023-05-07T12:41:26.601Z,11.19
2023-05-07T12:43:00.215Z,11.11
2023-05-07T12:44:32.249Z,10.97
2023-05-07T12:46:08.130Z,10.86
2023-05-07T12:47:34.233Z,10.80
2023-05-07T12:48:58.209Z,10.74
2023-05-07T12:50:32.501Z,10.68
2023-05-07T12:52:03.827Z,10.61
2023-05-07T12:53:30.180Z,10.52
2023-05-07T12:55:04.086Z,10.44
2023-05-07T12:56:33.303Z,10.37
2023-05-07T12:58:06.712Z,10.35
2023-05-07T12:59:30.673Z,10.37
2023-05-07T13:01:01.211Z,10.43
2023-05-07T13:02:23.052Z,10.40
2023-05-07T13:03:44.893Z,10.35
2023-05-07T13:05:06.999Z,10.32
2023-05-07T13:06:38.169Z,10.30
2023-05-07T13:08:11.781Z,10.28
2023-05-07T13:09:37.995Z,10.28
2023-05-07T13:11:05.043Z,10.30
2023-05-07T13:12:38.705Z,10.36
2023-05-07T13:14:03.284Z,10.44
2023-05-07T13:15:36.754Z,10.48
2023-05-07T13:16:58.370Z,10.51
2023-05-07T13:18:23.012Z,10.53
2023-05-07T13:19:46.932Z,10.54
2023-05-07T13:21:08.740Z,10.52
2023-05-07T13:22:30.831Z,10.47
2023-05-07T13:23:55.086Z,10.41
2023-05-07T13:25:17.281Z,10.35
2023-05-07T13:26:41.387Z,10.32
2023-05-07T13:28:10.935Z,10.21
2023-05-07T13:29:35.340Z,10.20
2023-05-07T13:30:59.558Z,10.25
2023-05-07T13:32:35.165Z,10.22
2023-05-07T13:34:09.599Z,10.41
2023-05-07T13:35:31.777Z,10.60
2023-05-07T13:36:56.486Z,10.82
2023-05-07T13:38:18.870Z,10.97
2023-05-07T13:39:41.829Z,11.10
2023-05-07T13:41:03.743Z,11.23
2023-05-07T13:42:33.228Z,11.35
2023-05-07T13:43:56.954Z,11.59
2023-05-07T13:45:19.111Z,11.70
2023-05-07T13:46:40.650Z,11.71
2023-05-07T13:48:05.109Z,11.64
2023-05-07T13:49:27.040Z,11.55
2023-05-07T13:50:50.980Z,11.52
2023-05-07T13:52:19.980Z,11.42
2023-05-07T13:53:42.182Z,11.35
2023-05-07T13:55:06.566Z,11.30
2023-05-07T13:56:29.319Z,11.25
2023-05-07T13:57:50.772Z,11.15
2023-05-07T13:59:15.508Z,11.00
2023-05-07T14:00:37.345Z,10.86
2023-05-07T14:02:10.674Z,10.86
2023-05-07T14:03:40.235Z,10.86
2023-05-07T14:05:01.801Z,10.88
2023-05-07T14:06:31.018Z,10.88
2023-05-07T14:07:57.473Z,10.85
2023-05-07T14:09:19.633Z,10.82
2023-05-07T14:10:41.374Z,10.81
2023-05-07T14:12:05.688Z,10.81
2023-05-07T14:13:41.110Z,10.87
2023-05-07T14:15:16.564Z,11.00
2023-05-07T14:16:40.963Z,11.16
2023-05-07T14:18:14.510Z,11.34
2023-05-07T14:19:38.729Z,11.42
2023-05-07T14:21:14.303Z,11.40
2023-05-07T14:22:35.943Z,11.35
2023-05-07T14:24:00.930Z,11.32
2023-05-07T14:25:25.306Z,11.26
2023-05-07T14:26:47.016Z,11.21
2023-05-07T14:28:09.154Z,11.20
2023-05-07T14:29:31.344Z,11.18
2023-05-07T14:31:05.475Z,11.14
2023-05-07T14:32:34.435Z,11.15
2023-05-07T14:33:56.197Z,11.19
2023-05-07T14:35:18.401Z,11.12
2023-05-07T14:36:42.845Z,11.17
2023-05-07T14:38:04.612Z,11.10
2023-05-07T14:39:39.571Z,11.06
2023-05-07T14:41:01.269Z,11.07
2023-05-07T14:42:23.207Z,11.07
2023-05-07T14:43:54.396Z,11.04
2023-05-07T14:45:24.173Z,10.98
2023-05-07T14:46:47.923Z,10.88
2023-05-07T14:48:10.390Z,10.86
2023-05-07T14:49:34.277Z,10.93
2023-05-07T14:51:07.777Z,11.03
2023-05-07T14:52:33.647Z,11.08
2023-05-07T14:53:57.942Z,11.13
2023-05-07T14:55:43.541Z,11.21
2023-05-07T14:57:19.545Z,11.31
2023-05-07T14:58:48.860Z,11.38
2023-05-07T15:00:13.489Z,11.44
2023-05-07T15:01:47.083Z,11.45
2023-05-07T15:03:24.970Z,11.45
2023-05-07T15:04:47.211Z,11.41
2023-05-07T15:06:11.501Z,11.43
2023-05-07T15:07:37.676Z,11.55
2023-05-07T15:08:59.518Z,11.76
2023-05-07T15:10:28.754Z,11.94
2023-05-07T15:11:55.122Z,12.02
2023-05-07T15:13:24.278Z,12.13
2023-05-07T15:14:48.269Z,12.17
2023-05-07T15:16:10.238Z,12.16
2023-05-07T15:17:31.820Z,12.11
2023-05-07T15:18:53.974Z,12.05
2023-05-07T15:20:27.520Z,12.02
2023-05-07T15:21:49.361Z,11.96
2023-05-07T15:23:12.701Z,11.89
2023-05-07T15:24:37.473Z,11.73
2023-05-07T15:26:06.316Z,11.52
2023-05-07T15:27:28.319Z,11.34
2023-05-07T15:28:50.352Z,11.18
2023-05-07T15:30:31.344Z,11.01
2023-05-07T15:31:53.190Z,10.88
2023-05-07T15:33:15.559Z,10.84
2023-05-07T15:34:39.387Z,10.83
2023-05-07T15:36:00.716Z,10.83
2023-05-07T15:37:25.451Z,10.84
2023-05-07T15:38:49.708Z,10.84
2023-05-07T15:40:13.742Z,10.85
2023-05-07T15:41:37.976Z,10.86
2023-05-07T15:43:01.696Z,10.87
2023-05-07T15:44:36.369Z,10.88
2023-05-07T15:45:58.270Z,10.89
2023-05-07T15:47:22.509Z,10.84
2023-05-07T15:48:44.536Z,10.93
2023-05-07T15:50:08.591Z,10.96
2023-05-07T15:51:44.391Z,10.97
2023-05-07T15:53:20.438Z,11.01
2023-05-07T15:54:42.397Z,11.01
2023-05-07T15:56:03.860Z,11.00
2023-05-07T15:57:25.594Z,10.98
2023-05-07T15:58:49.991Z,10.99
2023-05-07T16:00:12.490Z,10.97
2023-05-07T16:01:33.853Z,10.93
2023-05-07T16:03:07.613Z,10.89
2023-05-07T16:04:31.462Z,10.88
2023-05-07T16:06:00.656Z,10.88
2023-05-07T16:07:31.758Z,10.84
2023-05-07T16:09:00.721Z,10.80
2023-05-07T16:10:29.957Z,10.77
2023-05-07T16:11:51.790Z,10.73
2023-05-07T16:13:21.185Z,10.67
2023-05-07T16:14:42.898Z,10.61
2023-05-07T16:16:06.811Z,10.58
2023-05-07T16:17:33.429Z,10.55
2023-05-07T16:18:55.418Z,10.49
2023-05-07T16:20:19.920Z,10.48
2023-05-07T16:21:42.126Z,10.51
2023-05-07T16:23:13.368Z,10.47
2023-05-07T16:24:49.784Z,10.44
2023-05-07T16:26:18.916Z,10.42
2023-05-07T16:27:51.874Z,10.45
2023-05-07T16:29:13.392Z,10.46
2023-05-07T16:30:47.290Z,10.45
2023-05-07T16:32:20.717Z,10.43
2023-05-07T16:33:42.962Z,10.43
2023-05-07T16:35:04.198Z,10.43
2023-05-07T16:36:38.035Z,10.40
2023-05-07T16:38:13.507Z,10.39
2023-05-07T16:39:43.198Z,10.38
2023-05-07T16:41:05.804Z,10.39
2023-05-07T16:42:32.168Z,10.42
2023-05-07T16:43:58.878Z,10.42
2023-05-07T16:45:23.285Z,10.44
2023-05-07T16:46:47.944Z,10.47
2023-05-07T16:48:25.029Z,10.48
2023-05-07T16:49:53.905Z,10.47
2023-05-07T16:51:15.380Z,10.44
2023-05-07T16:52:36.933Z,10.40
2023-05-07T16:53:58.654Z,10.31
2023-05-07T16:55:20.809Z,10.25
2023-05-07T16:56:49.964Z,10.19
2023-05-07T16:58:16.257Z,10.16
2023-05-07T16:59:38.310Z,10.11
2023-05-07T17:01:11.698Z,10.06
2023-05-07T17:02:35.591Z,10.02
2023-05-07T17:04:04.805Z,9.99
2023-05-07T17:05:38.433Z,9.90
2023-05-07T17:07:00.141Z,9.81
2023-05-07T17:08:21.962Z,9.76
2023-05-07T17:09:43.654Z,9.73
2023-05-07T17:11:16.985Z,9.70
2023-05-07T17:12:38.613Z,9.65
2023-05-07T17:14:04.803Z,9.61
2023-05-07T17:15:27.232Z,9.53
2023-05-07T17:16:56.179Z,9.52
2023-05-07T17:18:18.034Z,9.50
2023-05-07T17:19:40.026Z,9.48
2023-05-07T17:21:04.165Z,9.46
2023-05-07T17:22:26.059Z,9.43
2023-05-07T17:23:50.246Z,9.40
2023-05-07T17:25:14.257Z,9.36
2023-05-07T17:26:41.358Z,9.34
2023-05-07T17:28:05.279Z,9.31
2023-05-07T17:29:27.534Z,9.25
2023-05-07T17:30:49.448Z,9.25
2023-05-07T17:32:16.011Z,9.23
2023-05-07T17:33:38.038Z,9.21
2023-05-07T17:34:59.660Z,9.18
2023-05-07T17:36:22.519Z,9.09
2023-05-07T17:37:49.083Z,9.13
2023-05-07T17:39:10.893Z,9.09
2023-05-07T17:40:44.645Z,9.06
2023-05-07T17:42:14.090Z,8.99
2023-05-07T17:43:36.062Z,8.99
2023-05-07T17:44:57.983Z,8.97
2023-05-07T17:46:19.898Z,8.96
2023-05-07T17:47:41.730Z,8.93
2023-05-07T17:49:05.725Z,8.88
2023-05-07T17:50:28.399Z,8.84
2023-05-07T17:51:54.631Z,8.71
2023-05-07T17:53:18.703Z,8.73
2023-05-07T17:54:40.818Z,8.69
2023-05-07T17:56:04.686Z,8.67
2023-05-07T17:57:27.979Z,8.64
2023-05-07T18:00:14.634Z,8.56
2023-05-07T18:01:48.289Z,8.47
2023-05-07T18:03:12.418Z,8.47
2023-05-07T18:04:34.069Z,8.45
2023-05-07T18:05:55.657Z,8.39
2023-05-07T18:07:17.411Z,8.32
2023-05-07T18:08:49.070Z,8.26
2023-05-07T18:10:13.567Z,8.22
2023-05-07T18:11:37.239Z,8.17
2023-05-07T18:12:58.646Z,8.12
2023-05-07T18:14:24.352Z,8.07
2023-05-07T18:15:46.894Z,8.03
2023-05-07T18:17:10.649Z,8.00
2023-05-07T18:18:34.625Z,7.97
2023-05-07T18:20:05.880Z,7.92
2023-05-07T18:21:28.127Z,7.87
2023-05-07T18:22:49.845Z,7.83
2023-05-07T18:24:34.894Z,7.78
2023-05-07T18:25:58.957Z,7.67
2023-05-07T18:27:23.518Z,7.70
2023-05-07T18:28:46.345Z,7.66
2023-05-07T18:30:07.763Z,7.63
2023-05-07T18:31:36.027Z,7.60
2023-05-07T18:32:59.362Z,7.48
2023-05-07T18:34:21.592Z,7.50
2023-05-07T18:35:47.657Z,7.46
2023-05-07T18:37:11.714Z,7.42
2023-05-07T18:38:48.134Z,7.37
2023-05-07T18:40:17.253Z,7.32
2023-05-07T18:41:48.758Z,7.27
2023-05-07T18:43:22.642Z,7.23
2023-05-07T18:44:44.448Z,7.18
2023-05-07T18:46:06.458Z,7.15
2023-05-07T18:47:28.417Z,7.11
2023-05-07T18:48:57.155Z,7.08
2023-05-07T18:50:21.578Z,7.03
2023-05-07T18:51:43.711Z,6.99
2023-05-07T18:53:05.023Z,6.94
2023-05-07T18:54:36.541Z,6.91
2023-05-07T18:56:06.658Z,6.86
2023-05-07T18:57:29.580Z,6.81
2023-05-07T18:58:53.808Z,6.78
2023-05-07T19:00:15.841Z,6.72
2023-05-07T19:01:37.866Z,6.69
2023-05-07T19:03:06.938Z,6.71
2023-05-07T19:04:30.190Z,6.70
2023-05-07T19:05:56.467Z,6.69
2023-05-07T19:07:18.727Z,6.66
2023-05-07T19:08:47.747Z,6.63
2023-05-07T19:10:11.985Z,6.60
2023-05-07T19:11:33.662Z,6.57
2023-05-07T19:12:57.611Z,6.54
2023-05-07T19:14:19.480Z,6.50
2023-05-07T19:15:41.914Z,6.47
2023-05-07T19:17:16.270Z,6.44
2023-05-07T19:18:40.180Z,6.44
2023-05-07T19:20:02.032Z,6.42
2023-05-07T19:21:24.544Z,6.40
2023-05-07T19:22:46.467Z,6.38
2023-05-07T19:24:07.812Z,6.35
2023-05-07T19:25:32.065Z,6.26
2023-05-07T19:26:53.826Z,6.31
2023-05-07T19:28:15.976Z,6.28
2023-05-07T19:29:37.341Z,6.26
2023-05-07T19:31:01.359Z,6.23
2023-05-07T19:32:23.491Z,6.21
2023-05-07T19:33:47.351Z,6.19
2023-05-07T19:35:11.748Z,6.17
2023-05-07T19:36:34.582Z,6.16
2023-05-07T19:37:56.425Z,6.15